Time;durP1;ratioP1;P1;durP2;ratioP2;P2;SDS_P1;SDS_P2;PMS_P1;PMS_P2;Temp;Humidity;BMP_temperature;BMP_pressure;BME280_temperature;BME280_humidity;BME280_pressure;Samples;Min_cycle;Max_cycle;Signal;HPM_P1;HPM_P2
2023/07/25 00:01:33;;;;;;;16.13;9.27;;;14.10;99.90;;;;;;5013485;28;20056;-76
2023/07/25 00:04:01;;;;;;;18.05;8.60;;;14.00;99.90;;;;;;5030374;28;20051;-74
2023/07/25 00:06:27;;;;;;;16.40;8.88;;;13.90;99.90;;;;;;5037210;28;20041;-74
2023/07/25 00:08:54;;;;;;;14.80;7.68;;;14.00;99.90;;;;;;5034762;28;20072;-74
2023/07/25 00:11:21;;;;;;;13.52;8.57;;;13.90;99.90;;;;;;5026722;28;20045;-75
2023/07/25 00:13:48;;;;;;;14.77;7.53;;;14.00;99.90;;;;;;5018235;28;20045;-75
2023/07/25 00:16:15;;;;;;;13.00;7.97;;;13.90;99.90;;;;;;5038232;28;20794;-75
2023/07/25 00:18:42;;;;;;;13.00;8.23;;;13.90;99.90;;;;;;5032154;28;20042;-74
2023/07/25 00:21:08;;;;;;;12.77;8.77;;;13.80;99.90;;;;;;5038307;28;20114;-75
2023/07/25 00:23:35;;;;;;;19.50;9.88;;;13.90;99.90;;;;;;5036530;28;20072;-74
2023/07/25 00:26:02;;;;;;;12.02;7.43;;;13.80;99.90;;;;;;5009735;28;20041;-75
2023/07/25 00:28:28;;;;;;;16.23;7.95;;;13.80;99.90;;;;;;5033508;28;20736;-74
2023/07/25 00:30:55;;;;;;;16.92;7.85;;;13.80;99.90;;;;;;5016415;28;20037;-74
2023/07/25 00:33:22;;;;;;;11.13;8.10;;;13.80;99.90;;;;;;5023758;28;20079;-75
2023/07/25 00:35:52;;;;;;;17.27;8.80;;;13.80;99.90;;;;;;5010234;28;20044;-73
2023/07/25 00:38:19;;;;;;;11.88;7.82;;;13.80;99.90;;;;;;5035649;28;20057;-74
2023/07/25 00:40:46;;;;;;;17.23;9.73;;;13.90;99.90;;;;;;5023190;28;20128;-75
2023/07/25 00:43:13;;;;;;;14.48;8.93;;;14.10;99.90;;;;;;5024109;28;20036;-74
2023/07/25 00:45:40;;;;;;;19.40;10.68;;;14.00;99.90;;;;;;5013417;28;20052;-73
2023/07/25 00:48:07;;;;;;;16.15;11.20;;;14.00;99.90;;;;;;5035714;28;20125;-74
2023/07/25 00:50:34;;;;;;;19.65;10.65;;;14.00;99.90;;;;;;5036123;28;20123;-75
2023/07/25 00:53:02;;;;;;;17.45;10.52;;;14.10;99.90;;;;;;4998919;28;20693;-74
2023/07/25 00:55:29;;;;;;;26.38;12.40;;;14.10;99.90;;;;;;5036908;28;20541;-74
2023/07/25 00:57:57;;;;;;;19.67;12.48;;;14.00;99.90;;;;;;5029392;28;20037;-74
2023/07/25 01:00:23;;;;;;;19.65;11.23;;;13.90;99.90;;;;;;5022949;28;20071;-74
2023/07/25 01:02:50;;;;;;;16.45;11.27;;;13.90;99.90;;;;;;5036245;28;20723;-74
2023/07/25 01:05:17;;;;;;;20.85;10.25;;;13.80;99.90;;;;;;5012956;28;20046;-74
2023/07/25 01:07:45;;;;;;;12.88;9.90;;;13.70;99.90;;;;;;5016032;28;20068;-73
2023/07/25 01:10:13;;;;;;;16.65;10.65;;;13.80;99.90;;;;;;5034413;28;20042;-75
2023/07/25 01:12:40;;;;;;;15.32;9.98;;;13.80;99.90;;;;;;5030423;28;20044;-74
2023/07/25 01:15:07;;;;;;;16.95;10.90;;;13.70;99.90;;;;;;5036741;28;20042;-75
2023/07/25 01:17:34;;;;;;;20.08;11.85;;;13.70;99.90;;;;;;5018077;28;20118;-74
2023/07/25 01:20:01;;;;;;;14.63;10.90;;;13.70;99.90;;;;;;5023858;28;20048;-74
2023/07/25 01:22:33;;;;;;;20.40;12.93;;;13.70;99.90;;;;;;5025393;28;20103;-75
2023/07/25 01:25:00;;;;;;;19.05;11.73;;;13.70;99.90;;;;;;5018710;28;20672;-74
2023/07/25 01:27:27;;;;;;;16.48;11.07;;;13.70;99.90;;;;;;5014159;28;20106;-75
2023/07/25 01:29:54;;;;;;;25.48;12.85;;;13.70;99.90;;;;;;5017555;28;20049;-74
2023/07/25 01:32:20;;;;;;;24.80;12.43;;;13.80;99.90;;;;;;5041852;28;20037;-75
2023/07/25 01:34:47;;;;;;;26.42;13.13;;;13.90;99.90;;;;;;5030484;28;20152;-74
2023/07/25 01:37:15;;;;;;;15.95;11.15;;;13.90;99.90;;;;;;5038231;28;20041;-74
2023/07/25 01:39:43;;;;;;;30.50;12.32;;;13.90;99.90;;;;;;5025582;28;20109;-73
2023/07/25 01:42:10;;;;;;;19.85;11.63;;;13.80;99.90;;;;;;5020477;28;20041;-73
2023/07/25 01:44:37;;;;;;;19.98;12.77;;;13.80;99.90;;;;;;5045558;28;20051;-75
2023/07/25 01:47:04;;;;;;;16.98;10.57;;;13.70;99.90;;;;;;5016288;28;20444;-74
2023/07/25 01:49:31;;;;;;;19.80;11.05;;;13.60;99.90;;;;;;5037209;28;20775;-74
2023/07/25 01:51:57;;;;;;;17.00;11.27;;;13.70;99.90;;;;;;5015784;28;20041;-74
2023/07/25 01:54:25;;;;;;;20.80;12.80;;;13.70;99.90;;;;;;5020289;28;20051;-73
2023/07/25 01:56:52;;;;;;;27.65;13.88;;;13.60;99.90;;;;;;5008922;28;20037;-75
2023/07/25 01:59:20;;;;;;;20.80;13.80;;;13.70;99.90;;;;;;5025049;28;20067;-74
2023/07/25 02:01:46;;;;;;;26.05;15.38;;;13.70;99.90;;;;;;5037208;28;20045;-74
2023/07/25 02:04:13;;;;;;;26.40;15.13;;;13.70;99.90;;;;;;5036370;28;20045;-74
2023/07/25 02:06:40;;;;;;;29.52;15.75;;;13.70;99.90;;;;;;5031015;28;20052;-73
2023/07/25 02:09:07;;;;;;;20.85;14.80;;;13.70;99.90;;;;;;5021827;28;20048;-74
2023/07/25 02:11:33;;;;;;;22.25;15.60;;;13.60;99.90;;;;;;5028449;28;20056;-75
2023/07/25 02:14:00;;;;;;;21.88;13.88;;;13.70;99.90;;;;;;5033292;28;20045;-72
2023/07/25 02:16:27;;;;;;;22.00;14.32;;;13.60;99.90;;;;;;5042346;28;20032;-72
2023/07/25 02:18:55;;;;;;;25.92;14.98;;;13.70;99.90;;;;;;5038455;28;20053;-74
2023/07/25 02:21:21;;;;;;;26.48;14.60;;;13.60;99.90;;;;;;5039939;28;20076;-73
2023/07/25 02:23:48;;;;;;;26.92;14.38;;;13.70;99.90;;;;;;5023621;28;20043;-73
2023/07/25 02:26:15;;;;;;;21.08;13.82;;;13.80;99.90;;;;;;5019974;28;20041;-73
2023/07/25 02:28:42;;;;;;;24.17;15.02;;;13.80;99.90;;;;;;5031751;28;20055;-73
2023/07/25 02:31:08;;;;;;;26.90;14.98;;;13.80;99.90;;;;;;5004761;28;20503;-75
2023/07/25 02:33:35;;;;;;;22.88;15.00;;;13.70;99.90;;;;;;5041876;28;20045;-75
2023/07/25 02:36:02;;;;;;;21.92;14.75;;;13.60;99.90;;;;;;5021518;28;20071;-75
2023/07/25 02:38:29;;;;;;;23.52;14.85;;;13.70;99.90;;;;;;5036762;28;20524;-76
2023/07/25 02:40:56;;;;;;;25.10;14.48;;;13.60;99.90;;;;;;5017395;28;20474;-73
2023/07/25 02:43:23;;;;;;;27.05;15.40;;;13.70;99.90;;;;;;5024535;28;20044;-73
2023/07/25 02:45:51;;;;;;;32.47;14.60;;;13.70;99.90;;;;;;5014320;28;20041;-75
2023/07/25 02:48:19;;;;;;;23.38;13.82;;;13.60;99.90;;;;;;5036789;28;20041;-74
2023/07/25 02:50:45;;;;;;;25.65;14.00;;;13.60;99.90;;;;;;5017542;28;20135;-71
2023/07/25 02:53:12;;;;;;;24.92;12.93;;;13.60;99.90;;;;;;5031795;28;20044;-73
2023/07/25 02:55:39;;;;;;;24.60;14.05;;;13.60;99.90;;;;;;5018550;28;20098;-74
2023/07/25 02:58:06;;;;;;;20.45;14.07;;;13.60;99.90;;;;;;5024412;28;20147;-73
2023/07/25 03:00:32;;;;;;;31.77;14.80;;;13.60;99.90;;;;;;5030693;28;20049;-74
2023/07/25 03:02:59;;;;;;;25.48;14.65;;;13.60;99.90;;;;;;5007556;28;20131;-74
2023/07/25 03:05:27;;;;;;;24.33;13.57;;;13.50;99.90;;;;;;5039318;28;20040;-74
2023/07/25 03:07:58;;;;;;;25.40;12.95;;;13.50;99.90;;;;;;5031230;28;20683;-73
2023/07/25 03:10:25;;;;;;;25.10;14.40;;;13.50;99.90;;;;;;5020427;28;20095;-74
2023/07/25 03:12:52;;;;;;;29.10;15.02;;;13.50;99.90;;;;;;5036905;28;20041;-74
2023/07/25 03:15:20;;;;;;;23.38;13.30;;;13.50;99.90;;;;;;5041209;28;20055;-74
2023/07/25 03:17:47;;;;;;;24.05;14.77;;;13.50;99.90;;;;;;5029454;28;20052;-73
2023/07/25 03:20:13;;;;;;;29.75;14.20;;;13.60;99.90;;;;;;5022249;28;20073;-74
2023/07/25 03:22:41;;;;;;;23.02;14.73;;;13.60;99.90;;;;;;5018977;28;20106;-74
2023/07/25 03:25:08;;;;;;;27.83;14.70;;;13.70;99.90;;;;;;5025926;28;20127;-73
2023/07/25 03:27:36;;;;;;;22.67;14.48;;;13.60;99.90;;;;;;5013962;28;20517;-74
2023/07/25 03:30:04;;;;;;;26.10;13.90;;;13.50;99.90;;;;;;5013721;28;20087;-73
2023/07/25 03:32:31;;;;;;;24.85;14.50;;;13.50;99.90;;;;;;5016922;28;20410;-74
2023/07/25 03:34:58;;;;;;;23.88;13.75;;;13.40;99.90;;;;;;5010111;28;20049;-72
2023/07/25 03:37:24;;;;;;;24.45;14.43;;;13.40;99.90;;;;;;5001801;28;20099;-73
2023/07/25 03:39:51;;;;;;;20.98;14.32;;;13.40;99.90;;;;;;5036687;28;20041;-74
2023/07/25 03:42:18;;;;;;;27.33;14.77;;;13.40;99.90;;;;;;5022467;28;20056;-74
2023/07/25 03:44:45;;;;;;;25.23;14.30;;;13.40;99.90;;;;;;5032686;28;20713;-74
2023/07/25 03:47:12;;;;;;;22.05;13.38;;;13.40;99.90;;;;;;5026518;28;20045;-74
2023/07/25 03:49:39;;;;;;;26.42;14.75;;;13.30;99.90;;;;;;5019367;28;20120;-74
2023/07/25 03:52:06;;;;;;;25.90;15.40;;;13.30;99.90;;;;;;5029750;28;20049;-74
2023/07/25 03:54:33;;;;;;;27.27;15.13;;;13.30;99.90;;;;;;5016403;28;20048;-73
2023/07/25 03:57:01;;;;;;;26.58;14.48;;;13.30;99.90;;;;;;5010267;28;20045;-73
2023/07/25 03:59:28;;;;;;;26.40;14.70;;;13.20;99.90;;;;;;5033893;28;20155;-75
2023/07/25 04:01:55;;;;;;;27.25;15.27;;;13.20;99.90;;;;;;5024668;28;20053;-74
2023/07/25 04:04:22;;;;;;;22.92;15.88;;;13.30;99.90;;;;;;5032861;28;20041;-74
2023/07/25 04:06:49;;;;;;;29.15;16.90;;;13.30;99.90;;;;;;5028152;28;20133;-72
2023/07/25 04:09:16;;;;;;;25.65;15.60;;;13.30;99.90;;;;;;5032732;28;20038;-74
2023/07/25 04:11:43;;;;;;;25.30;15.88;;;13.30;99.90;;;;;;5032364;28;20049;-75
2023/07/25 04:14:09;;;;;;;31.20;15.60;;;13.30;99.90;;;;;;5044629;28;20056;-74
2023/07/25 04:16:36;;;;;;;23.02;15.23;;;13.30;99.90;;;;;;5033309;28;20041;-74
2023/07/25 04:19:03;;;;;;;25.88;15.82;;;13.20;99.90;;;;;;5033192;28;20049;-74
2023/07/25 04:21:30;;;;;;;24.23;16.85;;;13.30;99.90;;;;;;5032160;28;20515;-73
2023/07/25 04:23:57;;;;;;;31.00;16.17;;;13.20;99.90;;;;;;5026941;28;20052;-74
2023/07/25 04:26:24;;;;;;;27.75;16.30;;;13.20;99.90;;;;;;5032365;28;20449;-73
2023/07/25 04:28:51;;;;;;;23.35;15.98;;;13.40;99.90;;;;;;5032333;28;20053;-74
2023/07/25 04:31:19;;;;;;;25.02;16.55;;;13.40;99.90;;;;;;5033482;28;20033;-75
2023/07/25 04:33:46;;;;;;;27.27;17.73;;;13.60;99.90;;;;;;5030044;28;20048;-74
2023/07/25 04:36:13;;;;;;;27.83;15.90;;;13.60;99.90;;;;;;5035939;28;20046;-72
2023/07/25 04:38:40;;;;;;;22.00;15.15;;;13.60;99.90;;;;;;5038807;28;20495;-74
2023/07/25 04:41:07;;;;;;;23.63;16.33;;;13.60;99.90;;;;;;5032957;28;20055;-74
2023/07/25 04:43:33;;;;;;;33.63;16.27;;;13.50;99.90;;;;;;5023050;28;20061;-75
2023/07/25 04:46:00;;;;;;;20.35;17.08;;;13.60;99.90;;;;;;5027537;28;20114;-74
2023/07/25 04:48:27;;;;;;;20.90;14.93;;;13.60;99.90;;;;;;5035869;28;20048;-75
2023/07/25 04:50:54;;;;;;;23.27;15.95;;;13.70;99.90;;;;;;5019153;28;20044;-75
2023/07/25 04:53:20;;;;;;;22.25;15.40;;;13.60;99.90;;;;;;5037908;28;20065;-74
2023/07/25 04:55:47;;;;;;;20.30;16.30;;;13.70;99.90;;;;;;5033909;28;20450;-75
2023/07/25 04:58:14;;;;;;;20.85;15.63;;;13.80;99.90;;;;;;5048380;28;20041;-75
2023/07/25 05:00:41;;;;;;;24.15;17.90;;;13.90;99.90;;;;;;5036967;28;20699;-74
2023/07/25 05:03:08;;;;;;;27.92;18.00;;;13.90;99.90;;;;;;5026703;28;20625;-74
2023/07/25 05:05:35;;;;;;;18.75;16.80;;;13.90;99.90;;;;;;5032911;28;20052;-74
2023/07/25 05:08:03;;;;;;;22.15;16.58;;;13.90;99.90;;;;;;5020635;28;20045;-74
2023/07/25 05:10:31;;;;;;;20.77;15.57;;;14.00;99.90;;;;;;5029682;28;20041;-74
2023/07/25 05:12:58;;;;;;;22.13;16.15;;;14.00;99.90;;;;;;5029996;28;20124;-75
2023/07/25 05:15:25;;;;;;;19.55;16.20;;;14.00;99.90;;;;;;5037558;28;20045;-76
2023/07/25 05:17:51;;;;;;;22.02;16.58;;;14.00;99.90;;;;;;5037534;28;20526;-74
2023/07/25 05:20:18;;;;;;;20.20;17.33;;;13.90;99.90;;;;;;5016574;28;20087;-75
2023/07/25 05:22:45;;;;;;;24.40;18.23;;;13.80;99.90;;;;;;5040611;28;20068;-74
2023/07/25 05:25:12;;;;;;;18.80;16.60;;;13.80;99.90;;;;;;5033515;28;20065;-74
2023/07/25 05:27:38;;;;;;;21.23;17.75;;;14.00;99.90;;;;;;5030147;28;20049;-74
2023/07/25 05:30:06;;;;;;;20.02;18.05;;;14.10;99.90;;;;;;5052195;28;20136;-74
2023/07/25 05:32:33;;;;;;;22.83;18.80;;;14.00;99.90;;;;;;5032401;28;20091;-74
2023/07/25 05:35:03;;;;;;;21.25;17.42;;;13.80;99.90;;;;;;5025951;28;20037;-75
2023/07/25 05:37:35;;;;;;;23.75;18.33;;;13.70;99.90;;;;;;5039266;28;20044;-74
2023/07/25 05:40:03;;;;;;;23.98;17.52;;;13.70;99.90;;;;;;5030396;28;20072;-74
2023/07/25 05:42:30;;;;;;;20.88;17.35;;;13.70;99.90;;;;;;5037904;28;20465;-73
2023/07/25 05:44:59;;;;;;;21.25;16.90;;;13.70;99.90;;;;;;5041747;28;20045;-74
2023/07/25 05:47:27;;;;;;;20.35;17.27;;;13.70;99.90;;;;;;5033571;28;20053;-74
2023/07/25 05:49:55;;;;;;;29.05;19.10;;;13.80;99.90;;;;;;5024910;28;20049;-74
2023/07/25 05:52:22;;;;;;;20.65;18.30;;;13.90;99.90;;;;;;5044172;28;20041;-75
2023/07/25 05:54:49;;;;;;;19.27;17.45;;;14.00;99.90;;;;;;5026870;28;20041;-73
2023/07/25 05:57:16;;;;;;;21.15;17.13;;;14.10;99.90;;;;;;5027774;28;20052;-74
2023/07/25 05:59:43;;;;;;;21.45;19.35;;;14.20;99.90;;;;;;5043748;28;20082;-75
2023/07/25 06:02:11;;;;;;;20.05;18.10;;;14.30;99.90;;;;;;5028585;28;20128;-74
2023/07/25 06:04:39;;;;;;;20.73;18.80;;;14.30;99.90;;;;;;5035193;28;20052;-73
2023/07/25 06:07:06;;;;;;;20.75;18.67;;;14.30;99.90;;;;;;5033228;28;20040;-74
2023/07/25 06:09:33;;;;;;;22.88;18.70;;;14.30;99.90;;;;;;5025950;28;20041;-75
2023/07/25 06:12:00;;;;;;;21.42;19.17;;;14.40;99.90;;;;;;5031138;28;20041;-76
2023/07/25 06:14:27;;;;;;;21.02;18.95;;;14.40;99.90;;;;;;5041039;28;20372;-74
2023/07/25 06:16:53;;;;;;;20.30;18.38;;;14.40;99.90;;;;;;5025677;28;20119;-74
2023/07/25 06:19:21;;;;;;;21.35;19.25;;;14.40;99.90;;;;;;5036312;28;20164;-74
2023/07/25 06:21:48;;;;;;;21.25;19.08;;;14.60;99.90;;;;;;5043730;28;20216;-74
2023/07/25 06:24:15;;;;;;;21.75;19.88;;;14.70;99.90;;;;;;5027102;28;20066;-74
2023/07/25 06:26:42;;;;;;;22.63;20.15;;;15.10;99.90;;;;;;5025799;28;20053;-75
2023/07/25 06:29:09;;;;;;;20.70;19.27;;;15.40;99.90;;;;;;5044424;28;20039;-75
2023/07/25 06:31:36;;;;;;;21.80;20.05;;;15.40;99.90;;;;;;5029346;28;20102;-75
2023/07/25 06:34:03;;;;;;;21.70;19.98;;;15.50;99.90;;;;;;5026400;28;20024;-74
2023/07/25 06:36:30;;;;;;;24.77;22.88;;;15.70;99.90;;;;;;5036652;28;20064;-74
2023/07/25 06:38:57;;;;;;;31.85;24.15;;;15.70;99.90;;;;;;5034897;28;20057;-73
2023/07/25 06:41:23;;;;;;;24.83;22.55;;;15.50;99.90;;;;;;5032885;28;20038;-74
2023/07/25 06:43:52;;;;;;;24.33;22.05;;;15.20;99.90;;;;;;5050915;28;20050;-74
2023/07/25 06:46:21;;;;;;;24.98;22.67;;;15.10;99.90;;;;;;5023599;28;20061;-73
2023/07/25 06:48:48;;;;;;;23.20;21.17;;;15.00;99.90;;;;;;5038090;28;20049;-74
2023/07/25 06:51:15;;;;;;;24.27;22.27;;;15.00;99.90;;;;;;5038270;28;20041;-73
2023/07/25 06:53:41;;;;;;;25.33;23.17;;;15.20;99.90;;;;;;5029426;28;20574;-74
2023/07/25 06:56:08;;;;;;;24.83;22.33;;;15.50;99.90;;;;;;5030590;28;20542;-74
2023/07/25 06:58:35;;;;;;;24.85;22.38;;;15.60;99.90;;;;;;5026728;28;20060;-74
2023/07/25 07:01:02;;;;;;;25.55;23.52;;;15.90;99.90;;;;;;5026653;28;20052;-74
2023/07/25 07:03:30;;;;;;;25.65;23.50;;;16.10;99.90;;;;;;5042192;28;20041;-74
2023/07/25 07:05:57;;;;;;;25.88;23.67;;;16.20;99.90;;;;;;5033958;28;20561;-74
2023/07/25 07:08:24;;;;;;;32.80;24.15;;;16.10;99.90;;;;;;5026521;28;20073;-74
2023/07/25 07:10:55;;;;;;;25.80;23.25;;;15.70;99.90;;;;;;5030217;28;20037;-74
2023/07/25 07:13:23;;;;;;;26.83;24.02;;;15.50;99.90;;;;;;5031362;28;21059;-73
2023/07/25 07:15:50;;;;;;;26.10;24.08;;;15.40;99.90;;;;;;5034061;28;20053;-73
2023/07/25 07:18:17;;;;;;;24.38;22.52;;;15.70;99.90;;;;;;5035385;28;20603;-72
2023/07/25 07:20:48;;;;;;;24.30;22.33;;;16.20;99.90;;;;;;5029848;28;20041;-75
2023/07/25 07:23:15;;;;;;;25.05;22.83;;;16.80;99.90;;;;;;5030042;28;20069;-74
2023/07/25 07:25:43;;;;;;;26.85;24.95;;;17.20;99.90;;;;;;5034303;28;20406;-75
2023/07/25 07:28:10;;;;;;;27.35;24.90;;;17.40;99.90;;;;;;5036177;28;20033;-75
2023/07/25 07:30:37;;;;;;;26.63;24.83;;;17.60;99.90;;;;;;5027769;28;20052;-74
2023/07/25 07:33:03;;;;;;;28.23;25.85;;;17.50;99.90;;;;;;5033710;28;20053;-74
2023/07/25 07:35:30;;;;;;;27.35;25.05;;;17.60;99.90;;;;;;5036770;28;20171;-75
2023/07/25 07:37:57;;;;;;;26.48;24.48;;;17.80;99.90;;;;;;5030823;28;20545;-73
2023/07/25 07:40:24;;;;;;;26.58;24.60;;;17.70;99.90;;;;;;5029259;28;20060;-73
2023/07/25 07:42:51;;;;;;;25.88;23.95;;;17.60;99.90;;;;;;5031179;28;20044;-74
2023/07/25 07:45:18;;;;;;;27.10;24.95;;;17.80;99.90;;;;;;5025717;28;20044;-74
2023/07/25 07:47:45;;;;;;;27.33;25.15;;;18.10;99.90;;;;;;5039693;28;20040;-75
2023/07/25 07:50:12;;;;;;;28.30;25.98;;;18.10;99.90;;;;;;5027593;28;20037;-74
2023/07/25 07:52:42;;;;;;;27.55;25.50;;;18.10;99.90;;;;;;5033334;28;20055;-74
2023/07/25 07:55:11;;;;;;;27.40;25.27;;;18.40;99.90;;;;;;5029807;28;20067;-74
2023/07/25 07:57:39;;;;;;;28.73;26.48;;;18.50;99.90;;;;;;5022978;28;20068;-75
2023/07/25 08:00:08;;;;;;;28.25;26.30;;;18.60;99.90;;;;;;5038617;28;20030;-73
2023/07/25 08:02:38;;;;;;;27.20;25.00;;;18.70;99.90;;;;;;5037175;28;20053;-73
2023/07/25 08:05:05;;;;;;;30.20;27.30;;;18.60;99.90;;;;;;5023300;28;20050;-74
2023/07/25 08:07:32;;;;;;;30.10;27.75;;;17.90;99.90;;;;;;5033751;28;20114;-75
2023/07/25 08:09:59;;;;;;;29.58;27.27;;;17.90;99.90;;;;;;5040305;28;20041;-73
2023/07/25 08:12:26;;;;;;;29.20;26.65;;;17.80;99.90;;;;;;5042902;28;20049;-74
2023/07/25 08:14:53;;;;;;;27.67;25.67;;;18.20;99.90;;;;;;5035145;28;20034;-73
2023/07/25 08:17:19;;;;;;;28.75;26.45;;;18.30;99.90;;;;;;5040486;28;20052;-74
2023/07/25 08:19:46;;;;;;;26.88;25.00;;;18.30;99.90;;;;;;5029681;28;20080;-75
2023/07/25 08:22:13;;;;;;;26.85;24.80;;;18.00;99.90;;;;;;5034162;28;20410;-74
2023/07/25 08:24:41;;;;;;;28.15;26.15;;;18.10;99.90;;;;;;5036473;28;20748;-74
2023/07/25 08:27:08;;;;;;;27.13;25.08;;;18.00;99.90;;;;;;5030499;28;20091;-74
2023/07/25 08:29:47;;;;;;;26.77;24.70;;;18.00;99.90;;;;;;5055940;28;20037;-73
2023/07/25 08:32:14;;;;;;;28.63;26.13;;;17.70;99.90;;;;;;5025616;28;20041;-74
2023/07/25 08:34:41;;;;;;;27.88;25.20;;;17.50;99.90;;;;;;5031158;28;20053;-73
2023/07/25 08:37:08;;;;;;;27.15;24.90;;;17.40;99.90;;;;;;5031541;28;20125;-74
2023/07/25 08:39:35;;;;;;;28.70;26.30;;;17.40;99.90;;;;;;5035106;28;20552;-75
2023/07/25 08:42:09;;;;;;;27.40;25.33;;;17.70;99.90;;;;;;5032303;28;20044;-74
2023/07/25 08:44:37;;;;;;;28.88;26.33;;;18.00;99.90;;;;;;5034118;28;20041;-75
2023/07/25 08:47:21;;;;;;;26.98;24.95;;;18.30;99.90;;;;;;5027715;28;20110;-74
2023/07/25 08:49:52;;;;;;;27.88;25.65;;;18.40;99.90;;;;;;5032803;28;20129;-75
2023/07/25 08:52:20;;;;;;;26.73;24.65;;;18.40;99.90;;;;;;5026952;28;20037;-73
2023/07/25 08:54:48;;;;;;;27.48;25.30;;;18.20;99.90;;;;;;5033297;28;20558;-73
2023/07/25 08:57:16;;;;;;;27.48;25.17;;;18.00;99.90;;;;;;5024288;28;20053;-74
2023/07/25 08:59:43;;;;;;;27.75;25.55;;;17.80;99.90;;;;;;5034231;28;20102;-73
2023/07/25 09:02:11;;;;;;;25.77;24.20;;;17.80;99.90;;;;;;5034579;28;20090;-72
2023/07/25 09:04:39;;;;;;;27.98;25.50;;;17.90;99.90;;;;;;5027375;28;20063;-73
2023/07/25 09:07:06;;;;;;;27.13;24.88;;;18.00;99.90;;;;;;5035641;28;20033;-73
2023/07/25 09:09:33;;;;;;;27.90;25.50;;;17.70;99.90;;;;;;5015189;28;20069;-73
2023/07/25 09:11:59;;;;;;;27.45;25.20;;;17.60;99.90;;;;;;5024237;28;20052;-73
2023/07/25 09:14:27;;;;;;;28.73;26.33;;;17.40;99.90;;;;;;5030872;28;20046;-74
2023/07/25 09:16:54;;;;;;;28.77;26.60;;;17.50;99.90;;;;;;5031847;28;20072;-74
2023/07/25 09:19:21;;;;;;;27.95;25.85;;;17.80;99.90;;;;;;5029139;28;20053;-74
2023/07/25 09:21:49;;;;;;;28.08;26.08;;;17.80;99.90;;;;;;5036186;28;20654;-72
2023/07/25 09:24:16;;;;;;;27.25;25.20;;;18.20;99.90;;;;;;5003951;28;20041;-73
2023/07/25 09:26:51;;;;;;;28.50;26.10;;;18.60;99.90;;;;;;5029136;28;20054;-73
2023/07/25 09:29:20;;;;;;;27.85;25.73;;;18.90;99.90;;;;;;5025208;28;20037;-73
2023/07/25 09:31:47;;;;;;;27.40;25.10;;;18.60;99.90;;;;;;5015680;28;20690;-73
2023/07/25 09:34:17;;;;;;;28.58;26.15;;;18.10;99.90;;;;;;5018248;28;20445;-73
2023/07/25 09:36:47;;;;;;;27.50;25.50;;;18.10;99.90;;;;;;5027788;28;20041;-73
2023/07/25 09:39:15;;;;;;;27.30;25.27;;;18.20;99.90;;;;;;5025434;28;20132;-73
2023/07/25 09:41:45;;;;;;;26.55;24.42;;;18.30;99.90;;;;;;5036204;28;20036;-74
2023/07/25 09:44:12;;;;;;;26.67;24.38;;;18.20;99.90;;;;;;5040692;28;20044;-73
2023/07/25 09:46:39;;;;;;;27.05;24.65;;;18.10;99.90;;;;;;5023213;28;20057;-73
2023/07/25 09:49:06;;;;;;;27.48;24.77;;;18.00;99.90;;;;;;5041758;28;20111;-74
2023/07/25 09:51:33;;;;;;;26.73;24.70;;;17.90;99.90;;;;;;5026813;28;20446;-74
2023/07/25 09:54:05;;;;;;;26.92;24.52;;;17.90;99.90;;;;;;5024811;28;20049;-74
2023/07/25 09:56:32;;;;;;;26.25;24.08;;;17.80;99.90;;;;;;5034838;28;20053;-74
2023/07/25 09:59:00;;;;;;;26.70;24.27;;;17.70;99.90;;;;;;5027982;28;20037;-74
2023/07/25 10:01:37;;;;;;;25.23;22.88;;;17.90;99.90;;;;;;5035642;28;20042;-74
2023/07/25 10:04:05;;;;;;;26.67;24.15;;;18.10;99.90;;;;;;5041046;28;20099;-74
2023/07/25 10:06:35;;;;;;;26.08;23.77;;;17.80;99.90;;;;;;5040735;28;20060;-73
2023/07/25 10:09:02;;;;;;;26.13;24.33;;;18.00;99.90;;;;;;5041826;28;20044;-74
2023/07/25 10:11:30;;;;;;;26.13;23.75;;;17.90;99.90;;;;;;5040401;28;20048;-73
2023/07/25 10:13:57;;;;;;;26.20;24.02;;;17.80;99.90;;;;;;5042885;28;20036;-73
2023/07/25 10:16:25;;;;;;;26.95;24.42;;;17.90;99.90;;;;;;5037140;28;20043;-73
2023/07/25 10:18:57;;;;;;;26.85;24.27;;;18.00;99.90;;;;;;5043299;28;20045;-73
2023/07/25 10:21:28;;;;;;;27.08;24.98;;;17.90;99.90;;;;;;5038396;28;20040;-73
2023/07/25 10:24:00;;;;;;;26.75;24.40;;;17.90;99.90;;;;;;5032776;28;20044;-73
2023/07/25 10:26:27;;;;;;;26.23;24.33;;;18.00;99.90;;;;;;5027640;28;20044;-74
2023/07/25 10:28:54;;;;;;;26.77;24.58;;;17.90;99.90;;;;;;5018702;28;20044;-73
2023/07/25 10:31:23;;;;;;;26.95;24.90;;;17.70;99.90;;;;;;5028773;28;20040;-73
2023/07/25 10:33:54;;;;;;;25.13;23.23;;;17.80;99.90;;;;;;5033856;28;20045;-72
2023/07/25 10:36:23;;;;;;;26.00;24.00;;;18.00;99.90;;;;;;5041451;28;20041;-73
2023/07/25 10:38:52;;;;;;;25.83;23.83;;;18.00;99.90;;;;;;5032993;28;20040;-73
2023/07/25 10:41:20;;;;;;;25.75;23.58;;;18.00;99.90;;;;;;5034997;28;20029;-73
2023/07/25 10:43:52;;;;;;;25.27;23.35;;;17.90;99.90;;;;;;5012206;28;20045;-72
2023/07/25 10:46:21;;;;;;;25.70;23.80;;;17.90;99.90;;;;;;5023537;28;20042;-72
2023/07/25 10:48:52;;;;;;;25.55;23.65;;;17.90;99.90;;;;;;5031065;28;20443;-72
2023/07/25 10:51:21;;;;;;;26.17;24.05;;;17.70;99.90;;;;;;5012607;28;21350;-72
2023/07/25 10:54:08;;;;;;;26.67;24.60;;;17.70;99.90;;;;;;5026942;28;20546;-71
2023/07/25 10:56:36;;;;;;;26.27;24.20;;;17.90;99.90;;;;;;5027492;28;20531;-72
2023/07/25 10:59:04;;;;;;;26.75;24.33;;;17.80;99.90;;;;;;5033413;28;20053;-73
2023/07/25 11:01:43;;;;;;;26.60;24.60;;;17.70;99.90;;;;;;5028999;28;20978;-73
2023/07/25 11:04:30;;;;;;;25.83;23.85;;;17.60;99.90;;;;;;5034337;28;20049;-74
2023/07/25 11:07:13;;;;;;;25.45;23.55;;;17.40;99.90;;;;;;5035302;28;20053;-74
2023/07/25 11:09:44;;;;;;;26.40;24.30;;;17.50;99.90;;;;;;5031922;28;20278;-74
2023/07/25 11:12:12;;;;;;;27.10;25.00;;;17.70;99.90;;;;;;5039806;28;20124;-74
2023/07/25 11:14:42;;;;;;;27.55;25.25;;;17.70;99.90;;;;;;5002917;28;20486;-73
2023/07/25 11:17:11;;;;;;;26.48;24.33;;;17.80;99.90;;;;;;5028457;28;20044;-75
2023/07/25 11:19:38;;;;;;;27.92;25.35;;;17.90;99.90;;;;;;5031818;28;20069;-74
2023/07/25 11:22:09;;;;;;;26.85;24.85;;;17.60;99.90;;;;;;5032653;28;20037;-73
2023/07/25 11:24:43;;;;;;;27.38;25.02;;;17.40;99.90;;;;;;5033795;28;20136;-73
2023/07/25 11:27:11;;;;;;;27.08;24.83;;;17.60;99.90;;;;;;5033433;28;20040;-75
2023/07/25 11:29:39;;;;;;;26.45;24.38;;;17.40;99.90;;;;;;5035334;28;20038;-78
2023/07/25 11:32:07;;;;;;;27.00;24.48;;;17.40;99.90;;;;;;5043837;28;20048;-78
2023/07/25 11:34:33;;;;;;;26.65;24.35;;;17.30;99.90;;;;;;5034035;28;20053;-79
2023/07/25 11:37:07;;;;;;;26.27;23.88;;;17.30;99.90;;;;;;5029764;28;20033;-80
2023/07/25 11:39:34;;;;;;;25.20;23.33;;;17.40;99.90;;;;;;5021345;28;20064;-79
2023/07/25 11:42:01;;;;;;;26.17;23.95;;;17.40;99.90;;;;;;5041911;28;20507;-79
2023/07/25 11:44:29;;;;;;;25.52;23.63;;;17.30;99.90;;;;;;5029899;28;20036;-79
2023/07/25 11:46:56;;;;;;;25.05;23.15;;;17.60;99.90;;;;;;5031452;28;20080;-78
2023/07/25 11:49:23;;;;;;;26.40;24.38;;;17.70;99.90;;;;;;5035821;28;20663;-80
2023/07/25 11:52:10;;;;;;;26.00;23.92;;;17.80;99.90;;;;;;5032047;28;20065;-78
2023/07/25 11:54:37;;;;;;;26.15;24.13;;;17.90;99.90;;;;;;5022223;28;21557;-80
2023/07/25 11:57:06;;;;;;;25.63;23.75;;;17.90;99.90;;;;;;5039133;28;20064;-81
2023/07/25 11:59:39;;;;;;;25.42;23.52;;;18.10;99.90;;;;;;5016302;28;20041;-79
2023/07/25 12:02:06;;;;;;;25.88;23.67;;;18.40;99.90;;;;;;5023028;28;20101;-76
2023/07/25 12:04:41;;;;;;;25.55;23.27;;;18.50;99.90;;;;;;5032914;28;20204;-80
2023/07/25 12:07:09;;;;;;;25.48;23.40;;;18.70;99.90;;;;;;5035999;28;20042;-80
2023/07/25 12:09:36;;;;;;;26.27;24.27;;;18.60;99.90;;;;;;5038876;28;20036;-80
2023/07/25 12:12:10;;;;;;;25.98;24.08;;;18.80;99.90;;;;;;5045684;28;20036;-81
2023/07/25 12:14:36;;;;;;;27.23;24.55;;;18.70;99.90;;;;;;5039508;28;20528;-81
2023/07/25 12:17:03;;;;;;;25.98;23.95;;;18.80;99.90;;;;;;5044130;28;20037;-79
2023/07/25 12:19:32;;;;;;;27.38;25.00;;;18.90;99.90;;;;;;5031466;28;20028;-75
2023/07/25 12:22:07;;;;;;;26.98;24.25;;;18.70;99.90;;;;;;5037939;28;20040;-76
2023/07/25 12:24:41;;;;;;;24.65;22.73;;;18.50;99.90;;;;;;5037102;28;20041;-76
2023/07/25 12:27:18;;;;;;;25.35;23.30;;;18.20;99.90;;;;;;5031522;28;20518;-78
2023/07/25 12:29:45;;;;;;;26.77;24.02;;;17.80;99.90;;;;;;5058516;28;20063;-76
2023/07/25 12:32:15;;;;;;;25.90;23.80;;;17.80;99.90;;;;;;5040541;28;20048;-76